sensor_id;sensor_type;location;lat;lon;timestamp;pressure;altitude;pressure_sealevel;temperature;humidity
15444;BME280;7822;48.146;11.576;2023-07-20T00:01:05;94981.31;;;20.16;86.07
15444;BME280;7822;48.146;11.576;2023-07-20T00:03:33;94983.13;;;20.15;86.08
15444;BME280;7822;48.146;11.576;2023-07-20T00:06:00;94989.22;;;20.16;85.80
15444;BME280;7822;48.146;11.576;2023-07-20T00:08:27;94988.19;;;20.17;85.89
15444;BME280;7822;48.146;11.576;2023-07-20T00:10:55;94980.47;;;20.15;85.90
15444;BME280;7822;48.146;11.576;2023-07-20T00:13:24;94971.56;;;20.16;85.78
15444;BME280;7822;48.146;11.576;2023-07-20T00:15:52;94967.31;;;20.15;85.81
15444;BME280;7822;48.146;11.576;2023-07-20T00:18:19;94985.56;;;20.17;85.85
15444;BME280;7822;48.146;11.576;2023-07-20T00:20:47;94976.84;;;20.16;85.50
15444;BME280;7822;48.146;11.576;2023-07-20T00:23:15;94980.28;;;20.17;85.35
15444;BME280;7822;48.146;11.576;2023-07-20T00:25:42;94990.00;;;20.16;85.43
15444;BME280;7822;48.146;11.576;2023-07-20T00:28:10;94983.94;;;20.16;85.82
15444;BME280;7822;48.146;11.576;2023-07-20T00:30:39;94983.13;;;20.15;85.68
15444;BME280;7822;48.146;11.576;2023-07-20T00:33:09;94994.28;;;20.17;85.46
15444;BME280;7822;48.146;11.576;2023-07-20T00:35:37;95003.16;;;20.16;85.39
15444;BME280;7822;48.146;11.576;2023-07-20T00:38:05;95002.38;;;20.16;85.26
15444;BME280;7822;48.146;11.576;2023-07-20T00:40:35;94997.09;;;20.16;85.44
15444;BME280;7822;48.146;11.576;2023-07-20T00:43:03;94998.91;;;20.15;85.27
15444;BME280;7822;48.146;11.576;2023-07-20T00:45:30;95001.56;;;20.15;85.13
15444;BME280;7822;48.146;11.576;2023-07-20T00:47:59;94996.28;;;20.15;85.09
15444;BME280;7822;48.146;11.576;2023-07-20T00:50:28;94997.09;;;20.16;85.27
15444;BME280;7822;48.146;11.576;2023-07-20T00:52:56;95001.56;;;20.15;85.31
15444;BME280;7822;48.146;11.576;2023-07-20T00:55:24;95021.81;;;20.15;85.16
15444;BME280;7822;48.146;11.576;2023-07-20T00:57:52;95020.97;;;20.14;85.16
15444;BME280;7822;48.146;11.576;2023-07-20T01:00:19;95021.81;;;20.15;85.00
15444;BME280;7822;48.146;11.576;2023-07-20T01:02:47;95002.53;;;20.14;85.01
15444;BME280;7822;48.146;11.576;2023-07-20T01:05:15;95007.81;;;20.14;85.32
15444;BME280;7822;48.146;11.576;2023-07-20T01:07:46;95008.63;;;20.15;85.13
15444;BME280;7822;48.146;11.576;2023-07-20T01:10:16;95008.63;;;20.15;85.24
15444;BME280;7822;48.146;11.576;2023-07-20T01:12:46;94997.28;;;20.14;85.02
15444;BME280;7822;48.146;11.576;2023-07-20T01:15:14;94991.84;;;20.16;84.99
15444;BME280;7822;48.146;11.576;2023-07-20T01:17:42;95004.19;;;20.15;85.03
15444;BME280;7822;48.146;11.576;2023-07-20T01:20:10;94989.22;;;20.16;84.93
15444;BME280;7822;48.146;11.576;2023-07-20T01:25:40;94995.25;;;20.16;84.91
15444;BME280;7822;48.146;11.576;2023-07-20T01:28:20;94990.00;;;20.16;84.87
15444;BME280;7822;48.146;11.576;2023-07-20T01:30:55;94989.22;;;20.16;84.68
15444;BME280;7822;48.146;11.576;2023-07-20T01:33:24;94995.25;;;20.16;84.64
15444;BME280;7822;48.146;11.576;2023-07-20T01:35:53;94986.56;;;20.16;84.59
15444;BME280;7822;48.146;11.576;2023-07-20T01:38:22;94994.47;;;20.16;84.73
15444;BME280;7822;48.146;11.576;2023-07-20T01:40:50;95001.34;;;20.17;84.78
15444;BME280;7822;48.146;11.576;2023-07-20T01:43:18;94996.91;;;20.17;84.52
15444;BME280;7822;48.146;11.576;2023-07-20T01:45:45;95002.19;;;20.17;84.39
15444;BME280;7822;48.146;11.576;2023-07-20T01:48:13;94996.28;;;20.15;84.56
15444;BME280;7822;48.146;11.576;2023-07-20T01:50:42;95005.63;;;20.18;84.83
15444;BME280;7822;48.146;11.576;2023-07-20T01:53:10;94999.75;;;20.16;84.76
15444;BME280;7822;48.146;11.576;2023-07-20T01:55:37;95005.81;;;20.16;84.64
15444;BME280;7822;48.146;11.576;2023-07-20T01:58:05;94997.09;;;20.16;84.41
15444;BME280;7822;48.146;11.576;2023-07-20T02:00:32;95002.38;;;20.16;84.79
15444;BME280;7822;48.146;11.576;2023-07-20T02:03:00;95001.56;;;20.15;84.64
15444;BME280;7822;48.146;11.576;2023-07-20T02:05:28;95008.44;;;20.16;84.59
15444;BME280;7822;48.146;11.576;2023-07-20T02:07:57;95007.66;;;20.16;84.44
15444;BME280;7822;48.146;11.576;2023-07-20T02:10:24;95001.56;;;20.15;84.14
15444;BME280;7822;48.146;11.576;2023-07-20T02:12:52;95006.81;;;20.15;84.67
15444;BME280;7822;48.146;11.576;2023-07-20T02:15:19;95012.09;;;20.15;84.72
15444;BME280;7822;48.146;11.576;2023-07-20T02:17:47;95006.81;;;20.15;84.47
15444;BME280;7822;48.146;11.576;2023-07-20T02:20:15;95007.66;;;20.16;84.57
15444;BME280;7822;48.146;11.576;2023-07-20T02:22:42;95015.72;;;20.14;84.58
15444;BME280;7822;48.146;11.576;2023-07-20T02:25:11;95018.34;;;20.14;84.68
15444;BME280;7822;48.146;11.576;2023-07-20T02:27:39;95007.81;;;20.14;84.53
15444;BME280;7822;48.146;11.576;2023-07-20T02:30:07;94995.47;;;20.15;84.60
15444;BME280;7822;48.146;11.576;2023-07-20T02:32:36;94993.03;;;20.13;84.64
15444;BME280;7822;48.146;11.576;2023-07-20T02:35:04;94997.28;;;20.14;84.44
15444;BME280;7822;48.146;11.576;2023-07-20T02:37:31;95007.00;;;20.14;84.58
15444;BME280;7822;48.146;11.576;2023-07-20T02:39:59;94996.44;;;20.14;84.49
15444;BME280;7822;48.146;11.576;2023-07-20T02:42:28;95006.00;;;20.15;84.32
15444;BME280;7822;48.146;11.576;2023-07-20T02:44:56;95007.00;;;20.14;84.38
15444;BME280;7822;48.146;11.576;2023-07-20T02:47:23;95018.34;;;20.14;84.43
15444;BME280;7822;48.146;11.576;2023-07-20T02:49:51;95020.97;;;20.14;84.03
15444;BME280;7822;48.146;11.576;2023-07-20T02:52:18;95041.06;;;20.15;84.44
15444;BME280;7822;48.146;11.576;2023-07-20T02:54:48;95050.78;;;20.15;84.35
15444;BME280;7822;48.146;11.576;2023-07-20T02:57:15;95051.59;;;20.15;84.40
15444;BME280;7822;48.146;11.576;2023-07-20T02:59:44;95031.34;;;20.16;84.18
15444;BME280;7822;48.146;11.576;2023-07-20T03:02:12;95040.25;;;20.15;84.05
15444;BME280;7822;48.146;11.576;2023-07-20T03:04:39;95039.25;;;20.16;84.13
15444;BME280;7822;48.146;11.576;2023-07-20T03:07:07;95048.78;;;20.17;84.35
15444;BME280;7822;48.146;11.576;2023-07-20T03:09:34;95044.53;;;20.16;84.08
15444;BME280;7822;48.146;11.576;2023-07-20T03:12:02;95047.94;;;20.16;84.23
15444;BME280;7822;48.146;11.576;2023-07-20T03:14:31;95045.31;;;20.16;84.25
15444;BME280;7822;48.146;11.576;2023-07-20T03:16:59;95040.03;;;20.16;84.32
15444;BME280;7822;48.146;11.576;2023-07-20T03:19:27;95045.31;;;20.16;84.00
15444;BME280;7822;48.146;11.576;2023-07-20T03:21:55;95055.84;;;20.16;84.20
15444;BME280;7822;48.146;11.576;2023-07-20T03:24:22;95069.84;;;20.17;84.40
15444;BME280;7822;48.146;11.576;2023-07-20T03:26:50;95080.38;;;20.17;84.04
15444;BME280;7822;48.146;11.576;2023-07-20T03:29:18;95069.03;;;20.16;84.29
15444;BME280;7822;48.146;11.576;2023-07-20T03:31:46;95062.97;;;20.16;84.10
15444;BME280;7822;48.146;11.576;2023-07-20T03:34:15;95064.78;;;20.15;84.32
15444;BME280;7822;48.146;11.576;2023-07-20T03:36:43;95074.28;;;20.16;84.21
15444;BME280;7822;48.146;11.576;2023-07-20T03:39:10;95078.75;;;20.16;84.32
15444;BME280;7822;48.146;11.576;2023-07-20T03:41:38;95076.13;;;20.16;84.10
15444;BME280;7822;48.146;11.576;2023-07-20T03:44:05;95072.69;;;20.15;84.09
15444;BME280;7822;48.146;11.576;2023-07-20T03:46:33;95072.69;;;20.15;84.13
15444;BME280;7822;48.146;11.576;2023-07-20T03:49:00;95064.94;;;20.14;84.13
15444;BME280;7822;48.146;11.576;2023-07-20T03:51:29;95069.22;;;20.15;84.17
15444;BME280;7822;48.146;11.576;2023-07-20T03:53:57;95068.41;;;20.14;84.25
15444;BME280;7822;48.146;11.576;2023-07-20T03:56:24;95077.13;;;20.15;84.14
15444;BME280;7822;48.146;11.576;2023-07-20T03:58:52;95077.13;;;20.15;84.15
15444;BME280;7822;48.146;11.576;2023-07-20T04:01:20;95077.31;;;20.13;84.28
15444;BME280;7822;48.146;11.576;2023-07-20T04:03:47;95080.75;;;20.14;84.37
15444;BME280;7822;48.146;11.576;2023-07-20T04:06:15;95074.69;;;20.13;84.04
15444;BME280;7822;48.146;11.576;2023-07-20T04:08:45;95070.19;;;20.14;84.17
15444;BME280;7822;48.146;11.576;2023-07-20T04:11:13;95066.78;;;20.13;84.20
15444;BME280;7822;48.146;11.576;2023-07-20T04:13:41;95075.47;;;20.14;83.81
15444;BME280;7822;48.146;11.576;2023-07-20T04:16:09;95077.13;;;20.15;83.98
15444;BME280;7822;48.146;11.576;2023-07-20T04:18:36;95077.94;;;20.15;83.95
15444;BME280;7822;48.146;11.576;2023-07-20T04:21:04;95077.13;;;20.15;83.85
15444;BME280;7822;48.146;11.576;2023-07-20T04:23:31;95077.13;;;20.15;83.96
15444;BME280;7822;48.146;11.576;2023-07-20T04:26:00;95077.94;;;20.15;83.92
15444;BME280;7822;48.146;11.576;2023-07-20T04:28:28;95079.75;;;20.15;83.92
15444;BME280;7822;48.146;11.576;2023-07-20T04:31:08;95087.66;;;20.15;84.07
15444;BME280;7822;48.146;11.576;2023-07-20T04:33:36;95079.56;;;20.16;83.87
15444;BME280;7822;48.146;11.576;2023-07-20T04:36:04;95082.19;;;20.16;83.87
15444;BME280;7822;48.146;11.576;2023-07-20T04:38:31;95074.28;;;20.16;84.09
15444;BME280;7822;48.146;11.576;2023-07-20T04:41:00;95078.75;;;20.16;84.16
15444;BME280;7822;48.146;11.576;2023-07-20T04:43:28;95086.66;;;20.16;84.10
15444;BME280;7822;48.146;11.576;2023-07-20T04:45:56;95084.81;;;20.16;83.69
15444;BME280;7822;48.146;11.576;2023-07-20T04:48:24;95085.66;;;20.17;84.03
15444;BME280;7822;48.146;11.576;2023-07-20T04:50:52;95092.56;;;20.18;83.83
15444;BME280;7822;48.146;11.576;2023-07-20T04:53:19;95099.66;;;20.17;83.84
15444;BME280;7822;48.146;11.576;2023-07-20T04:55:47;95095.38;;;20.16;83.83
15444;BME280;7822;48.146;11.576;2023-07-20T04:58:18;95104.91;;;20.17;83.89
15444;BME280;7822;48.146;11.576;2023-07-20T05:00:46;95106.53;;;20.18;83.98
15444;BME280;7822;48.146;11.576;2023-07-20T05:03:14;95101.44;;;20.17;83.98
15444;BME280;7822;48.146;11.576;2023-07-20T05:05:41;95102.28;;;20.17;83.83
15444;BME280;7822;48.146;11.576;2023-07-20T05:08:09;95104.09;;;20.17;83.81
15444;BME280;7822;48.146;11.576;2023-07-20T05:10:36;95098.81;;;20.17;83.96
15444;BME280;7822;48.146;11.576;2023-07-20T05:13:04;95092.72;;;20.16;83.83
15444;BME280;7822;48.146;11.576;2023-07-20T05:15:33;95091.94;;;20.16;84.14
15444;BME280;7822;48.146;11.576;2023-07-20T05:18:01;95097.22;;;20.16;83.83
15444;BME280;7822;48.146;11.576;2023-07-20T05:20:29;95101.66;;;20.15;84.07
15444;BME280;7822;48.146;11.576;2023-07-20T05:22:58;95101.66;;;20.15;83.90
15444;BME280;7822;48.146;11.576;2023-07-20T05:25:25;95099.84;;;20.16;83.94
15444;BME280;7822;48.146;11.576;2023-07-20T05:27:56;95097.22;;;20.16;84.04
15444;BME280;7822;48.146;11.576;2023-07-20T05:30:24;95098.19;;;20.15;84.03
15444;BME280;7822;48.146;11.576;2023-07-20T05:32:53;95102.47;;;20.16;83.89
15444;BME280;7822;48.146;11.576;2023-07-20T05:35:21;95100.81;;;20.15;83.83
15444;BME280;7822;48.146;11.576;2023-07-20T05:37:48;95099.84;;;20.16;83.77
15444;BME280;7822;48.146;11.576;2023-07-20T05:40:16;95106.09;;;20.15;83.69
15444;BME280;7822;48.146;11.576;2023-07-20T05:42:45;95096.38;;;20.15;83.77
15444;BME280;7822;48.146;11.576;2023-07-20T05:45:14;95105.28;;;20.14;83.79
15444;BME280;7822;48.146;11.576;2023-07-20T05:47:42;95103.47;;;20.15;83.69
15444;BME280;7822;48.146;11.576;2023-07-20T05:50:11;95109.56;;;20.15;83.75
15444;BME280;7822;48.146;11.576;2023-07-20T05:52:39;95105.28;;;20.14;83.92
15444;BME280;7822;48.146;11.576;2023-07-20T05:55:07;95108.72;;;20.15;83.92
15444;BME280;7822;48.146;11.576;2023-07-20T05:57:34;95107.91;;;20.14;84.03
15444;BME280;7822;48.146;11.576;2023-07-20T06:00:03;95111.34;;;20.15;83.96
15444;BME280;7822;48.146;11.576;2023-07-20T06:02:30;95114.00;;;20.15;83.93
15444;BME280;7822;48.146;11.576;2023-07-20T06:04:59;95126.97;;;20.16;83.90
15444;BME280;7822;48.146;11.576;2023-07-20T06:07:28;95125.16;;;20.17;83.89
15444;BME280;7822;48.146;11.576;2023-07-20T06:09:55;95116.44;;;20.16;83.87
15444;BME280;7822;48.146;11.576;2023-07-20T06:12:24;95117.06;;;20.18;83.92
15444;BME280;7822;48.146;11.576;2023-07-20T06:14:52;95120.53;;;20.19;83.93
15444;BME280;7822;48.146;11.576;2023-07-20T06:17:20;95119.69;;;20.18;83.67
15444;BME280;7822;48.146;11.576;2023-07-20T06:19:47;95126.63;;;20.19;83.91
15444;BME280;7822;48.146;11.576;2023-07-20T06:22:15;95126.47;;;20.21;83.92
15444;BME280;7822;48.146;11.576;2023-07-20T06:24:43;95114.28;;;20.20;83.95
15444;BME280;7822;48.146;11.576;2023-07-20T06:27:11;95115.06;;;20.20;83.79
15444;BME280;7822;48.146;11.576;2023-07-20T06:29:38;95114.28;;;20.20;83.97
15444;BME280;7822;48.146;11.576;2023-07-20T06:32:06;95114.09;;;20.21;83.88
15444;BME280;7822;48.146;11.576;2023-07-20T06:34:34;95108.00;;;20.21;84.00
15444;BME280;7822;48.146;11.576;2023-07-20T06:37:04;95110.66;;;20.21;83.85
15444;BME280;7822;48.146;11.576;2023-07-20T06:39:32;95121.19;;;20.21;83.74
15444;BME280;7822;48.146;11.576;2023-07-20T06:42:04;95113.28;;;20.21;84.06
15444;BME280;7822;48.146;11.576;2023-07-20T06:44:32;95111.47;;;20.21;84.12
15444;BME280;7822;48.146;11.576;2023-07-20T06:46:59;95100.13;;;20.21;83.77
15444;BME280;7822;48.146;11.576;2023-07-20T06:49:27;95115.91;;;20.21;83.80
15444;BME280;7822;48.146;11.576;2023-07-20T06:51:54;95117.69;;;20.20;83.99
15444;BME280;7822;48.146;11.576;2023-07-20T06:54:22;95113.28;;;20.21;84.05
15444;BME280;7822;48.146;11.576;2023-07-20T06:56:49;95121.19;;;20.21;83.99
15444;BME280;7822;48.146;11.576;2023-07-20T06:59:21;95113.28;;;20.21;83.91
15444;BME280;7822;48.146;11.576;2023-07-20T07:01:50;95105.38;;;20.21;84.03
15444;BME280;7822;48.146;11.576;2023-07-20T07:04:18;95101.88;;;20.20;84.05
15444;BME280;7822;48.146;11.576;2023-07-20T07:06:45;95109.78;;;20.20;84.13
15444;BME280;7822;48.146;11.576;2023-07-20T07:09:13;95117.69;;;20.20;83.89
15444;BME280;7822;48.146;11.576;2023-07-20T07:11:40;95114.28;;;20.20;83.83
15444;BME280;7822;48.146;11.576;2023-07-20T07:14:08;95108.19;;;20.19;83.58
15444;BME280;7822;48.146;11.576;2023-07-20T07:16:37;95109.00;;;20.20;83.67
15444;BME280;7822;48.146;11.576;2023-07-20T07:19:05;95112.44;;;20.20;83.67
15444;BME280;7822;48.146;11.576;2023-07-20T07:21:33;95111.63;;;20.20;83.61
15444;BME280;7822;48.146;11.576;2023-07-20T07:24:01;95110.66;;;20.21;83.96
15444;BME280;7822;48.146;11.576;2023-07-20T07:26:30;95110.81;;;20.19;83.74
15444;BME280;7822;48.146;11.576;2023-07-20T07:28:57;95115.91;;;20.21;83.90
15444;BME280;7822;48.146;11.576;2023-07-20T07:31:24;95110.81;;;20.19;83.92
15444;BME280;7822;48.146;11.576;2023-07-20T07:33:53;95115.91;;;20.21;83.83
15444;BME280;7822;48.146;11.576;2023-07-20T07:36:21;95120.34;;;20.20;83.84
15444;BME280;7822;48.146;11.576;2023-07-20T07:38:50;95116.91;;;20.20;83.86
15444;BME280;7822;48.146;11.576;2023-07-20T07:41:21;95129.09;;;20.21;83.82
15444;BME280;7822;48.146;11.576;2023-07-20T07:43:49;95118.38;;;20.22;83.83
15444;BME280;7822;48.146;11.576;2023-07-20T07:46:17;95115.91;;;20.21;83.66
15444;BME280;7822;48.146;11.576;2023-07-20T07:48:44;95113.28;;;20.21;83.82
15444;BME280;7822;48.146;11.576;2023-07-20T07:51:13;95115.06;;;20.20;83.49
15444;BME280;7822;48.146;11.576;2023-07-20T07:53:41;95113.28;;;20.21;83.67
15444;BME280;7822;48.146;11.576;2023-07-20T07:56:10;95108.66;;;20.23;83.54
15444;BME280;7822;48.146;11.576;2023-07-20T07:58:37;95117.56;;;20.22;83.79
15444;BME280;7822;48.146;11.576;2023-07-20T08:01:05;95122.84;;;20.22;83.61
15444;BME280;7822;48.146;11.576;2023-07-20T08:03:32;95114.09;;;20.21;83.59
15444;BME280;7822;48.146;11.576;2023-07-20T08:06:03;95118.38;;;20.22;83.76
15444;BME280;7822;48.146;11.576;2023-07-20T08:08:33;95121.81;;;20.23;83.58
15444;BME280;7822;48.146;11.576;2023-07-20T08:11:01;95117.56;;;20.22;83.46
15444;BME280;7822;48.146;11.576;2023-07-20T08:13:33;95122.00;;;20.21;83.83
15444;BME280;7822;48.146;11.576;2023-07-20T08:16:00;95124.66;;;20.21;83.74
15444;BME280;7822;48.146;11.576;2023-07-20T08:18:28;95128.09;;;20.22;83.50
15444;BME280;7822;48.146;11.576;2023-07-20T08:20:56;95124.66;;;20.21;83.83
15444;BME280;7822;48.146;11.576;2023-07-20T08:23:24;95121.19;;;20.21;83.65
15444;BME280;7822;48.146;11.576;2023-07-20T08:25:55;95131.72;;;20.21;83.49
15444;BME280;7822;48.146;11.576;2023-07-20T08:28:22;95129.09;;;20.21;83.83
15444;BME280;7822;48.146;11.576;2023-07-20T08:30:50;95128.22;;;20.20;83.82
15444;BME280;7822;48.146;11.576;2023-07-20T08:33:18;95129.91;;;20.21;83.80
15444;BME280;7822;48.146;11.576;2023-07-20T08:35:46;95126.47;;;20.21;83.65
15444;BME280;7822;48.146;11.576;2023-07-20T08:38:14;95134.34;;;20.21;83.43
15444;BME280;7822;48.146;11.576;2023-07-20T08:40:42;95134.34;;;20.21;83.80
15444;BME280;7822;48.146;11.576;2023-07-20T08:43:12;95126.47;;;20.21;83.55
15444;BME280;7822;48.146;11.576;2023-07-20T08:45:40;95128.22;;;20.20;83.87
15444;BME280;7822;48.146;11.576;2023-07-20T08:48:08;95130.88;;;20.20;83.57
15444;BME280;7822;48.146;11.576;2023-07-20T08:50:35;95127.44;;;20.20;83.69
15444;BME280;7822;48.146;11.576;2023-07-20T08:53:03;95126.47;;;20.21;83.67
15444;BME280;7822;48.146;11.576;2023-07-20T08:55:31;95134.34;;;20.21;83.55
15444;BME280;7822;48.146;11.576;2023-07-20T08:57:59;95134.34;;;20.21;83.51
15444;BME280;7822;48.146;11.576;2023-07-20T09:00:28;95127.44;;;20.20;83.73
15444;BME280;7822;48.146;11.576;2023-07-20T09:02:56;95123.81;;;20.21;83.62
15444;BME280;7822;48.146;11.576;2023-07-20T09:05:24;95122.16;;;20.20;83.67
15444;BME280;7822;48.146;11.576;2023-07-20T09:07:53;95116.91;;;20.20;83.70
15444;BME280;7822;48.146;11.576;2023-07-20T09:10:20;95117.69;;;20.20;83.38
15444;BME280;7822;48.146;11.576;2023-07-20T09:12:48;95112.44;;;20.20;83.70
15444;BME280;7822;48.146;11.576;2023-07-20T09:15:16;95109.78;;;20.20;83.75
15444;BME280;7822;48.146;11.576;2023-07-20T09:17:48;95105.38;;;20.21;83.45
15444;BME280;7822;48.146;11.576;2023-07-20T09:20:16;95112.44;;;20.20;83.66
15444;BME280;7822;48.146;11.576;2023-07-20T09:22:48;95097.47;;;20.21;83.54
15444;BME280;7822;48.146;11.576;2023-07-20T09:25:16;95094.00;;;20.20;83.27
15444;BME280;7822;48.146;11.576;2023-07-20T09:27:44;95104.53;;;20.20;83.33
15444;BME280;7822;48.146;11.576;2023-07-20T09:30:13;95095.66;;;20.21;83.43
15444;BME280;7822;48.146;11.576;2023-07-20T09:32:45;95097.47;;;20.21;83.56
15444;BME280;7822;48.146;11.576;2023-07-20T09:35:17;95099.13;;;20.22;83.56
15444;BME280;7822;48.146;11.576;2023-07-20T09:37:49;95100.75;;;20.23;83.63
15444;BME280;7822;48.146;11.576;2023-07-20T09:40:38;95107.84;;;20.22;83.74
15444;BME280;7822;48.146;11.576;2023-07-20T09:43:10;95106.00;;;20.23;83.49
15444;BME280;7822;48.146;11.576;2023-07-20T09:45:41;95095.66;;;20.21;83.78
15444;BME280;7822;48.146;11.576;2023-07-20T09:48:11;95093.84;;;20.22;83.55
15444;BME280;7822;48.146;11.576;2023-07-20T09:50:48;95093.84;;;20.22;83.76
15444;BME280;7822;48.146;11.576;2023-07-20T09:53:17;95091.22;;;20.22;83.75
15444;BME280;7822;48.146;11.576;2023-07-20T09:55:45;95092.22;;;20.21;83.82
15444;BME280;7822;48.146;11.576;2023-07-20T09:58:13;95086.94;;;20.21;83.50
15444;BME280;7822;48.146;11.576;2023-07-20T10:00:41;95092.22;;;20.21;83.57
15444;BME280;7822;48.146;11.576;2023-07-20T10:03:16;95092.22;;;20.21;83.74
15444;BME280;7822;48.146;11.576;2023-07-20T10:05:48;95092.22;;;20.21;83.69
15444;BME280;7822;48.146;11.576;2023-07-20T10:08:19;95093.03;;;20.21;83.78
15444;BME280;7822;48.146;11.576;2023-07-20T10:10:50;95094.84;;;20.21;83.54
15444;BME280;7822;48.146;11.576;2023-07-20T10:13:21;95089.56;;;20.21;83.65
15444;BME280;7822;48.146;11.576;2023-07-20T10:15:53;95092.22;;;20.21;83.69
15444;BME280;7822;48.146;11.576;2023-07-20T10:18:22;95095.84;;;20.20;83.82
15444;BME280;7822;48.146;11.576;2023-07-20T10:20:53;95088.72;;;20.20;83.72
15444;BME280;7822;48.146;11.576;2023-07-20T10:23:24;95085.28;;;20.20;83.43
15444;BME280;7822;48.146;11.576;2023-07-20T10:25:53;95087.94;;;20.20;83.65
15444;BME280;7822;48.146;11.576;2023-07-20T10:28:21;95081.66;;;20.21;83.59
15444;BME280;7822;48.146;11.576;2023-07-20T10:30:50;95091.34;;;20.20;83.66
15444;BME280;7822;48.146;11.576;2023-07-20T10:33:18;95075.53;;;20.20;83.73
15444;BME280;7822;48.146;11.576;2023-07-20T10:35:54;95068.50;;;20.21;83.69
15444;BME280;7822;48.146;11.576;2023-07-20T10:41:04;95064.22;;;20.20;83.74
15444;BME280;7822;48.146;11.576;2023-07-20T10:43:42;95064.22;;;20.20;83.79
15444;BME280;7822;48.146;11.576;2023-07-20T10:46:10;95069.50;;;20.20;83.69
15444;BME280;7822;48.146;11.576;2023-07-20T10:51:22;95067.66;;;20.20;83.82
15444;BME280;7822;48.146;11.576;2023-07-20T10:53:50;95061.59;;;20.20;83.78
15444;BME280;7822;48.146;11.576;2023-07-20T10:56:20;95065.88;;;20.21;83.88
15444;BME280;7822;48.146;11.576;2023-07-20T10:58:49;95059.75;;;20.20;83.80
15444;BME280;7822;48.146;11.576;2023-07-20T11:01:17;95064.88;;;20.22;83.57
15444;BME280;7822;48.146;11.576;2023-07-20T11:03:48;95062.38;;;20.20;83.60
15444;BME280;7822;48.146;11.576;2023-07-20T11:06:32;95062.38;;;20.20;83.78
15444;BME280;7822;48.146;11.576;2023-07-20T11:09:04;95057.09;;;20.20;83.88
15444;BME280;7822;48.146;11.576;2023-07-20T11:11:35;95050.06;;;20.21;83.81
15444;BME280;7822;48.146;11.576;2023-07-20T11:14:03;95047.44;;;20.21;83.48
15444;BME280;7822;48.146;11.576;2023-07-20T11:16:32;95052.69;;;20.21;83.74
15444;BME280;7822;48.146;11.576;2023-07-20T11:19:00;95050.88;;;20.21;83.76
15444;BME280;7822;48.146;11.576;2023-07-20T11:21:28;95045.78;;;20.20;83.67
15444;BME280;7822;48.146;11.576;2023-07-20T11:23:57;95050.06;;;20.21;83.78
15444;BME280;7822;48.146;11.576;2023-07-20T11:26:24;95052.84;;;20.19;83.86
15444;BME280;7822;48.146;11.576;2023-07-20T11:28:52;95036.03;;;20.20;83.78
15444;BME280;7822;48.146;11.576;2023-07-20T11:31:19;95048.41;;;20.20;83.82
15444;BME280;7822;48.146;11.576;2023-07-20T11:33:47;95044.94;;;20.19;83.54
15444;BME280;7822;48.146;11.576;2023-07-20T11:36:15;95043.16;;;20.20;83.59
15444;BME280;7822;48.146;11.576;2023-07-20T11:38:45;95045.78;;;20.20;83.81
15444;BME280;7822;48.146;11.576;2023-07-20T11:41:15;95042.31;;;20.19;83.89
15444;BME280;7822;48.146;11.576;2023-07-20T11:43:42;95037.88;;;20.20;83.72
15444;BME280;7822;48.146;11.576;2023-07-20T11:46:12;95044.94;;;20.19;83.54
15444;BME280;7822;48.146;11.576;2023-07-20T11:48:40;95031.78;;;20.19;83.82
15444;BME280;7822;48.146;11.576;2023-07-20T11:51:12;95023.06;;;20.19;83.82
15444;BME280;7822;48.146;11.576;2023-07-20T11:53:40;95018.63;;;20.19;83.83
15444;BME280;7822;48.146;11.576;2023-07-20T11:56:08;95018.63;;;20.19;83.92
15444;BME280;7822;48.146;11.576;2023-07-20T11:58:37;95009.06;;;20.18;83.83
15444;BME280;7822;48.146;11.576;2023-07-20T12:01:08;95008.28;;;20.18;83.66
15444;BME280;7822;48.146;11.576;2023-07-20T12:03:37;95020.44;;;20.19;83.79
15444;BME280;7822;48.146;11.576;2023-07-20T12:06:07;95017.78;;;20.19;83.83
15444;BME280;7822;48.146;11.576;2023-07-20T12:08:37;95006.44;;;20.18;83.60
15444;BME280;7822;48.146;11.576;2023-07-20T12:11:05;94995.88;;;20.18;83.53
15444;BME280;7822;48.146;11.576;2023-07-20T12:13:42;95001.16;;;20.18;83.51
15444;BME280;7822;48.146;11.576;2023-07-20T12:16:10;95009.06;;;20.18;83.76
15444;BME280;7822;48.146;11.576;2023-07-20T12:18:39;94996.72;;;20.19;83.61
15444;BME280;7822;48.146;11.576;2023-07-20T12:21:07;94988.00;;;20.18;83.56
15444;BME280;7822;48.146;11.576;2023-07-20T12:23:35;94985.34;;;20.18;83.89
15444;BME280;7822;48.146;11.576;2023-07-20T12:26:06;94986.19;;;20.19;83.59
15444;BME280;7822;48.146;11.576;2023-07-20T12:28:33;94987.00;;;20.19;83.61
15444;BME280;7822;48.146;11.576;2023-07-20T12:31:04;94979.09;;;20.19;83.93
15444;BME280;7822;48.146;11.576;2023-07-20T12:33:32;94976.47;;;20.19;83.60
15444;BME280;7822;48.146;11.576;2023-07-20T12:36:00;94966.75;;;20.20;83.74
15444;BME280;7822;48.146;11.576;2023-07-20T12:38:27;94965.94;;;20.19;83.59
15444;BME280;7822;48.146;11.576;2023-07-20T12:40:57;94976.47;;;20.19;83.75
15444;BME280;7822;48.146;11.576;2023-07-20T12:43:24;94964.13;;;20.20;83.62
15444;BME280;7822;48.146;11.576;2023-07-20T12:45:52;94973.66;;;20.21;83.67
15444;BME280;7822;48.146;11.576;2023-07-20T12:48:21;94972.03;;;20.20;83.74
15444;BME280;7822;48.146;11.576;2023-07-20T12:50:49;94960.66;;;20.19;83.54
15444;BME280;7822;48.146;11.576;2023-07-20T12:53:16;94967.53;;;20.20;83.61
15444;BME280;7822;48.146;11.576;2023-07-20T12:55:44;94960.50;;;20.21;83.77
15444;BME280;7822;48.146;11.576;2023-07-20T12:58:11;94959.63;;;20.20;83.84
15444;BME280;7822;48.146;11.576;2023-07-20T13:00:39;94950.94;;;20.20;83.73
15444;BME280;7822;48.146;11.576;2023-07-20T13:03:06;94950.94;;;20.20;83.71
15444;BME280;7822;48.146;11.576;2023-07-20T13:05:37;94948.31;;;20.20;83.76
15444;BME280;7822;48.146;11.576;2023-07-20T13:08:07;94953.59;;;20.20;83.58
15444;BME280;7822;48.146;11.576;2023-07-20T13:10:38;94949.09;;;20.20;83.52
15444;BME280;7822;48.146;11.576;2023-07-20T13:13:05;94948.31;;;20.20;83.63
15444;BME280;7822;48.146;11.576;2023-07-20T13:15:40;94947.50;;;20.19;83.49